Time;durP1;ratioP1;P1;durP2;ratioP2;P2;SDS_P1;SDS_P2;PMS_P1;PMS_P2;Temp;Humidity;BMP_temperature;BMP_pressure;BME280_temperature;BME280_humidity;BME280_pressure;Samples;Min_cycle;Max_cycle;Signal;HPM_P1;HPM_P2
2023/10/09 00:01:01;;;;;;;;;;;;;;;15.55;nan;102347.81;5065944;28;20143;-89
2023/10/09 00:03:27;;;;;;;;;;;;;;;15.48;nan;102331.78;5061969;28;19928;-88
2023/10/09 00:05:53;;;;;;;;;;;;;;;15.47;nan;102332.84;5067072;28;19920;-88
2023/10/09 00:08:22;;;;;;;;;;;;;;;15.48;nan;102333.66;5063002;28;19920;-88
2023/10/09 00:10:57;;;;;;;;;;;;;;;15.50;nan;102328.84;5063180;28;20515;-89
2023/10/09 00:13:32;;;;;;;;;;;;;;;15.53;nan;102334.56;5062970;28;19917;-88
2023/10/09 00:16:01;;;;;;;;;;;;;;;15.54;nan;102328.09;5064358;28;20423;-88
2023/10/09 00:18:29;;;;;;;;;;;;;;;15.59;nan;102313.88;5062599;28;19946;-89
2023/10/09 00:21:11;;;;;;;;;;;;;;;15.60;nan;102324.44;5063308;28;19928;-88
2023/10/09 00:23:36;;;;;;;;;;;;;;;15.59;nan;102324.69;5062949;28;19932;-88
2023/10/09 00:26:21;;;;;;;;;;;;;;;15.59;nan;102322.81;5063332;28;19990;-88
2023/10/09 00:28:51;;;;;;;;;;;;;;;15.61;nan;102317.97;5060822;28;19947;-88
2023/10/09 00:31:33;;;;;;;;;;;;;;;15.63;nan;102307.78;5059954;28;19948;-88
2023/10/09 00:34:07;;;;;;;;;;;;;;;15.63;nan;102304.25;5057249;28;19928;-89
2023/10/09 00:36:33;;;;;;;;;;;;;;;15.63;nan;102301.56;5057622;28;19924;-89
2023/10/09 00:39:05;;;;;;;;;;;;;;;15.65;nan;102299.41;5060446;28;19984;-88
2023/10/09 00:41:35;;;;;;;;;;;;;;;15.68;nan;102297.03;5062176;28;19916;-89
2023/10/09 00:44:00;;;;;;;;;;;;;;;15.70;nan;102286.81;5062778;28;20052;-89
2023/10/09 00:46:27;;;;;;;;;;;;;;;15.72;nan;102273.06;5057565;28;20342;-89
2023/10/09 00:49:02;;;;;;;;;;;;;;;15.74;nan;102268.22;5063553;28;19924;-89
2023/10/09 00:51:34;;;;;;;;;;;;;;;15.75;nan;102255.53;5056844;28;19924;-89
2023/10/09 00:54:06;;;;;;;;;;;;;;;15.77;nan;102250.69;5063660;28;19924;-89
2023/10/09 00:56:44;;;;;;;;;;;;;;;15.78;nan;102250.44;5061210;28;19931;-90
2023/10/09 00:59:20;;;;;;;;;;;;;;;15.82;nan;102243.50;5057677;28;19952;-90
2023/10/09 01:02:05;;;;;;;;;;;;;;;15.80;nan;102236.69;5061762;28;19924;-89
2023/10/09 01:04:36;;;;;;;;;;;;;;;15.75;nan;102232.03;5064835;28;19920;-89
2023/10/09 01:07:15;;;;;;;;;;;;;;;15.73;nan;102227.94;5060790;28;19928;-90
2023/10/09 01:09:44;;;;;;;;;;;;;;;15.66;nan;102233.50;5057309;28;20372;-90
2023/10/09 01:12:16;;;;;;;;;;;;;;;15.59;nan;102238.25;5060305;28;19921;-90
2023/10/09 01:14:46;;;;;;;;;;;;;;;15.49;nan;102232.66;5063061;28;20368;-90
2023/10/09 01:17:11;;;;;;;;;;;;;;;15.35;nan;102219.47;5062196;28;19920;-89
2023/10/09 01:19:37;;;;;;;;;;;;;;;15.35;nan;102226.75;5056575;28;20376;-88
2023/10/09 01:22:16;;;;;;;;;;;;;;;15.31;nan;102212.91;5062867;28;19920;-88
2023/10/09 01:24:41;;;;;;;;;;;;;;;15.27;nan;102210.94;5061635;28;19974;-87
2023/10/09 01:27:16;;;;;;;;;;;;;;;15.27;nan;102221.75;5060406;28;20009;-88
2023/10/09 01:29:41;;;;;;;;;;;;;;;15.27;nan;102203.66;5057919;28;19971;-88
2023/10/09 01:32:09;;;;;;;;;;;;;;;15.26;nan;102202.03;5059609;28;19916;-88
2023/10/09 01:37:22;;;;;;;;;;;;;;;15.27;nan;102189.34;5060221;28;19927;-88
2023/10/09 01:39:51;;;;;;;;;;;;;;;15.31;nan;102177.00;5062387;28;19967;-88
2023/10/09 01:42:27;;;;;;;;;;;;;;;15.36;nan;102180.59;5057062;28;19916;-88
2023/10/09 01:44:53;;;;;;;;;;;;;;;15.40;nan;102175.50;5062151;28;19921;-88
2023/10/09 01:47:19;;;;;;;;;;;;;;;15.40;nan;102170.91;5059701;28;19946;-88
2023/10/09 01:49:49;;;;;;;;;;;;;;;15.41;nan;102172.56;5058397;28;20284;-88
2023/10/09 01:52:18;;;;;;;;;;;;;;;15.42;nan;102178.78;5059425;28;19927;-88
2023/10/09 01:54:48;;;;;;;;;;;;;;;15.43;nan;102164.22;5062227;28;19926;-87
2023/10/09 01:57:15;;;;;;;;;;;;;;;15.44;nan;102168.56;5061967;28;19925;-86
2023/10/09 01:59:44;;;;;;;;;;;;;;;15.45;nan;102159.41;5059244;28;20628;-87
2023/10/09 02:02:25;;;;;;;;;;;;;;;15.45;nan;102151.31;5062806;28;19916;-88
2023/10/09 02:07:40;;;;;;;;;;;;;;;15.47;nan;102153.75;5058567;28;20093;-86
2023/10/09 02:10:11;;;;;;;;;;;;;;;15.49;nan;102148.91;5061627;28;20450;-86
2023/10/09 02:12:37;;;;;;;;;;;;;;;15.51;nan;102144.91;5061527;28;19923;-87
2023/10/09 02:15:15;;;;;;;;;;;;;;;15.49;nan;102136.22;5061579;28;20388;-86
2023/10/09 02:17:52;;;;;;;;;;;;;;;15.51;nan;102136.78;5056062;28;19978;-87
2023/10/09 02:20:19;;;;;;;;;;;;;;;15.53;nan;102123.03;5053811;28;19916;-86
2023/10/09 02:22:44;;;;;;;;;;;;;;;15.53;nan;102131.16;5059976;28;20088;-87
2023/10/09 02:25:11;;;;;;;;;;;;;;;15.53;nan;102123.84;5061608;28;19931;-86
2023/10/09 02:27:53;;;;;;;;;;;;;;;15.56;nan;102126.06;5060520;28;20316;-86
2023/10/09 02:30:27;;;;;;;;;;;;;;;15.57;nan;102129.59;5062604;28;19939;-86
2023/10/09 02:32:55;;;;;;;;;;;;;;;15.62;nan;102118.91;5062320;28;19916;-86
2023/10/09 02:35:36;;;;;;;;;;;;;;;15.64;nan;102114.88;5061995;28;20485;-85
2023/10/09 02:38:04;;;;;;;;;;;;;;;15.68;nan;102113.31;5058263;28;19916;-85
2023/10/09 02:40:33;;;;;;;;;;;;;;;15.70;nan;102111.16;5061017;28;19978;-86
2023/10/09 02:42:59;;;;;;;;;;;;;;;15.71;nan;102106.59;5062193;28;19917;-86
2023/10/09 02:45:24;;;;;;;;;;;;;;;15.72;nan;102113.63;5060508;28;19980;-86
2023/10/09 02:47:51;;;;;;;;;;;;;;;15.70;nan;102105.78;5062246;28;19954;-86
2023/10/09 02:50:20;;;;;;;;;;;;;;;15.67;nan;102110.84;5062483;28;20380;-86
2023/10/09 02:52:47;;;;;;;;;;;;;;;15.65;nan;102094.09;5058926;28;20007;-86
2023/10/09 02:55:23;;;;;;;;;;;;;;;15.64;nan;102101.38;5059573;28;19974;-86
2023/10/09 02:57:51;;;;;;;;;;;;;;;15.65;nan;102113.00;5057237;28;19917;-86
2023/10/09 03:00:28;;;;;;;;;;;;;;;15.68;nan;102107.09;5059350;28;20388;-86
2023/10/09 03:02:54;;;;;;;;;;;;;;;15.68;nan;102104.38;5059994;28;20356;-86
2023/10/09 03:05:20;;;;;;;;;;;;;;;15.64;nan;102108.66;5061126;28;20238;-85
2023/10/09 03:07:46;;;;;;;;;;;;;;;15.58;nan;102093.41;5059978;28;19995;-86
2023/10/09 03:10:11;;;;;;;;;;;;;;;15.54;nan;102084.97;5063415;28;20262;-86
2023/10/09 03:12:39;;;;;;;;;;;;;;;15.54;nan;102086.84;5063542;28;20396;-85
2023/10/09 03:15:08;;;;;;;;;;;;;;;15.53;nan;102087.94;5061675;28;19916;-86
2023/10/09 03:17:34;;;;;;;;;;;;;;;15.52;nan;102080.88;5058921;28;19921;-86
2023/10/09 03:20:02;;;;;;;;;;;;;;;15.47;nan;102073.53;5062108;28;19928;-86
2023/10/09 03:22:27;;;;;;;;;;;;;;;15.45;nan;102074.84;5061166;28;20050;-86
2023/10/09 03:24:52;;;;;;;;;;;;;;;15.41;nan;102064.53;5059365;28;20146;-85
2023/10/09 03:27:18;;;;;;;;;;;;;;;15.40;nan;102052.09;5057316;28;20392;-86
2023/10/09 03:29:49;;;;;;;;;;;;;;;15.40;nan;102045.88;5061886;28;19929;-86
2023/10/09 03:32:14;;;;;;;;;;;;;;;15.36;nan;102040.16;5060370;28;19917;-85
2023/10/09 03:34:39;;;;;;;;;;;;;;;15.34;nan;102036.88;5063221;28;19927;-86
2023/10/09 03:37:06;;;;;;;;;;;;;;;15.34;nan;102031.50;5058115;28;19931;-86
2023/10/09 03:39:38;;;;;;;;;;;;;;;15.38;nan;102043.44;5058324;28;19921;-86
2023/10/09 03:42:05;;;;;;;;;;;;;;;15.41;nan;102066.41;5060887;28;20364;-86
2023/10/09 03:44:33;;;;;;;;;;;;;;;15.46;nan;102061.09;5062368;28;19946;-86
2023/10/09 03:46:59;;;;;;;;;;;;;;;15.54;nan;102024.72;5061922;28;20011;-86
2023/10/09 03:49:25;;;;;;;;;;;;;;;15.56;nan;102014.50;5060017;28;19926;-86
2023/10/09 03:51:51;;;;;;;;;;;;;;;15.54;nan;102022.84;5058125;28;19920;-85
2023/10/09 03:54:20;;;;;;;;;;;;;;;15.56;nan;102018.00;5058404;28;20395;-85
2023/10/09 03:56:45;;;;;;;;;;;;;;;15.59;nan;102020.22;5057494;28;19924;-86
2023/10/09 03:59:12;;;;;;;;;;;;;;;15.64;nan;102012.22;5058219;28;19933;-85
2023/10/09 04:01:38;;;;;;;;;;;;;;;15.66;nan;101999.28;5060471;28;19924;-86
2023/10/09 04:04:06;;;;;;;;;;;;;;;15.68;nan;101996.31;5059276;28;20269;-85
2023/10/09 04:06:34;;;;;;;;;;;;;;;15.68;nan;101997.13;5060882;28;19993;-86
2023/10/09 04:09:13;;;;;;;;;;;;;;;15.69;nan;101995.25;5064625;28;19982;-86
2023/10/09 04:11:42;;;;;;;;;;;;;;;15.71;nan;101993.91;5063669;28;19924;-86
2023/10/09 04:14:12;;;;;;;;;;;;;;;15.73;nan;101979.34;5059138;28;19974;-86
2023/10/09 04:16:51;;;;;;;;;;;;;;;15.76;nan;101973.44;5061819;28;19925;-85
2023/10/09 04:19:19;;;;;;;;;;;;;;;15.78;nan;101968.56;5059059;28;19924;-86
2023/10/09 04:21:44;;;;;;;;;;;;;;;15.78;nan;101965.88;5059712;28;20050;-86
2023/10/09 04:26:44;;;;;;;;;;;;;;;15.79;nan;101962.09;5065274;28;19974;-86
2023/10/09 04:29:10;;;;;;;;;;;;;;;15.81;nan;101960.81;5056437;28;20000;-86
2023/10/09 04:31:37;;;;;;;;;;;;;;;15.79;nan;101964.81;5059853;28;19920;-86
2023/10/09 04:34:22;;;;;;;;;;;;;;;15.74;nan;101973.69;5058221;28;20485;-85
2023/10/09 04:36:49;;;;;;;;;;;;;;;15.75;nan;101967.19;5060733;28;19916;-86
2023/10/09 04:39:36;;;;;;;;;;;;;;;15.79;nan;101968.31;5060913;28;19920;-86
2023/10/09 04:42:20;;;;;;;;;;;;;;;15.81;nan;101958.09;5059314;28;19931;-87
2023/10/09 04:47:49;;;;;;;;;;;;;;;15.82;nan;101959.75;5058205;28;20636;-85
2023/10/09 04:50:36;;;;;;;;;;;;;;;15.85;nan;101956.53;5059670;28;19920;-86
2023/10/09 04:55:44;;;;;;;;;;;;;;;15.91;nan;101950.09;5054439;28;19927;-86
2023/10/09 04:58:24;;;;;;;;;;;;;;;15.89;nan;101951.41;5055507;28;19987;-87
2023/10/09 05:01:04;;;;;;;;;;;;;;;15.85;nan;101940.31;5055706;28;19959;-86
2023/10/09 05:08:54;;;;;;;;;;;;;;;15.84;nan;101916.25;5055279;28;19931;-86
2023/10/09 05:12:26;;;;;;;;;;;;;;;15.84;nan;101917.06;5057440;28;19924;-87
2023/10/09 05:14:17;;;;;;;;;;;;;;;15.85;nan;101913.28;5054384;28;20014;-87
2023/10/09 05:17:15;;;;;;;;;;;;;;;15.87;nan;101921.13;5055031;28;19920;-86
2023/10/09 05:19:41;;;;;;;;;;;;;;;15.87;nan;101921.13;5056529;28;20472;-87
2023/10/09 05:24:54;;;;;;;;;;;;;;;15.86;nan;101898.69;5056484;28;19927;-86
2023/10/09 05:27:45;;;;;;;;;;;;;;;15.86;nan;101909.50;5056942;28;20004;-87
2023/10/09 05:32:54;;;;;;;;;;;;;;;15.87;nan;101905.72;5056446;28;19932;-86
2023/10/09 05:35:29;;;;;;;;;;;;;;;15.89;nan;101917.09;5055389;28;20011;-86
2023/10/09 05:38:01;;;;;;;;;;;;;;;15.90;nan;101916.03;5056325;28;19931;-86
2023/10/09 05:40:31;;;;;;;;;;;;;;;15.93;nan;101903.88;5051681;28;19920;-86
2023/10/09 05:42:59;;;;;;;;;;;;;;;15.92;nan;101908.47;5058689;28;19931;-86
2023/10/09 05:50:58;;;;;;;;;;;;;;;15.96;nan;101908.78;5053098;28;20079;-87
2023/10/09 06:04:15;;;;;;;;;;;;;;;16.01;nan;101909.66;5056693;28;19927;-86
2023/10/09 06:06:45;;;;;;;;;;;;;;;16.04;nan;101907.50;5057622;28;19956;-87
2023/10/09 06:11:39;;;;;;;;;;;;;;;16.05;nan;101891.03;5057823;28;20300;-87
2023/10/09 06:19:28;;;;;;;;;;;;;;;16.02;nan;101875.34;5067688;28;21270;-86
2023/10/09 06:24:41;;;;;;;;;;;;;;;16.03;nan;101863.44;5055800;28;20404;-86
2023/10/09 06:29:38;;;;;;;;;;;;;;;16.07;nan;101866.44;5059951;28;19920;-86
2023/10/09 06:34:53;;;;;;;;;;;;;;;16.03;nan;101866.16;5054530;28;19962;-87
2023/10/09 06:45:16;;;;;;;;;;;;;;;16.03;nan;101860.75;5055357;28;20352;-86
2023/10/09 06:47:42;;;;;;;;;;;;;;;15.99;nan;101863.16;5056130;28;19975;-87
2023/10/09 06:53:19;;;;;;;;;;;;;;;15.98;nan;101882.34;5055447;28;20033;-87
2023/10/09 06:55:50;;;;;;;;;;;;;;;15.98;nan;101880.44;5054514;28;20620;-87
2023/10/09 06:58:22;;;;;;;;;;;;;;;16.00;nan;101885.59;5055927;28;20319;-87
2023/10/09 07:03:34;;;;;;;;;;;;;;;16.09;nan;101912.97;5058722;28;20421;-87
2023/10/09 07:06:24;;;;;;;;;;;;;;;16.12;nan;101923.25;5058773;28;20376;-87
2023/10/09 07:14:06;;;;;;;;;;;;;;;16.26;nan;101930.69;5063073;28;19943;-87
2023/10/09 07:16:57;;;;;;;;;;;;;;;16.29;nan;101934.78;5059039;28;19924;-87
2023/10/09 07:22:03;;;;;;;;;;;;;;;16.28;nan;101928.53;5065160;28;19931;-87
2023/10/09 07:24:43;;;;;;;;;;;;;;;16.34;nan;101924.03;5060932;28;20308;-86
2023/10/09 07:27:13;;;;;;;;;;;;;;;16.32;nan;101923.44;5060843;28;19932;-87
2023/10/09 07:29:47;;;;;;;;;;;;;;;16.35;nan;101917.53;5062007;28;19963;-88
2023/10/09 07:32:21;;;;;;;;;;;;;;;16.35;nan;101905.91;5059287;28;19920;-88
2023/10/09 07:34:53;;;;;;;;;;;;;;;16.34;nan;101902.38;5062490;28;19927;-86
2023/10/09 07:37:30;;;;;;;;;;;;;;;16.37;nan;101901.84;5066325;28;19924;-86
2023/10/09 07:39:59;;;;;;;;;;;;;;;16.38;nan;101895.38;5061656;28;19924;-87
2023/10/09 07:42:43;;;;;;;;;;;;;;;16.35;nan;101893.19;5059461;28;20361;-86
2023/10/09 07:48:00;;;;;;;;;;;;;;;16.39;nan;101877.25;5059124;28;19943;-87
2023/10/09 07:50:37;;;;;;;;;;;;;;;16.38;nan;101883.75;5059229;28;19921;-87
2023/10/09 07:53:20;;;;;;;;;;;;;;;16.38;nan;101887.25;5059021;28;19921;-88
2023/10/09 07:55:53;;;;;;;;;;;;;;;16.44;nan;101894.31;5057776;28;20118;-87
2023/10/09 07:58:24;;;;;;;;;;;;;;;16.52;nan;101901.16;5058988;28;19917;-88
2023/10/09 08:03:25;;;;;;;;;;;;;;;16.57;nan;101904.72;5059061;28;19970;-88
2023/10/09 08:05:52;;;;;;;;;;;;;;;16.60;nan;101900.66;5060310;28;20011;-87
2023/10/09 08:08:39;;;;;;;;;;;;;;;16.56;nan;101900.38;5058704;28;19953;-87
2023/10/09 08:13:56;;;;;;;;;;;;;;;16.52;nan;101885.75;5060311;28;20098;-87
2023/10/09 08:16:24;;;;;;;;;;;;;;;16.56;nan;101886.84;5061353;28;19967;-87
2023/10/09 08:18:51;;;;;;;;;;;;;;;16.61;nan;101883.34;5062888;28;19920;-87
2023/10/09 08:21:41;;;;;;;;;;;;;;;16.62;nan;101872.28;5061077;28;20298;-87
2023/10/09 08:24:35;;;;;;;;;;;;;;;16.63;nan;101876.59;5061018;28;19920;-87
2023/10/09 08:27:28;;;;;;;;;;;;;;;16.68;nan;101877.72;5061475;28;19920;-88
2023/10/09 08:29:37;;;;;;;;;;;;;;;16.67;nan;101881.53;5059611;28;20511;-89
2023/10/09 08:32:18;;;;;;;;;;;;;;;16.63;nan;101892.03;5059896;28;19920;-86
2023/10/09 08:34:48;;;;;;;;;;;;;;;16.64;nan;101893.66;5061252;28;19921;-87
2023/10/09 08:37:14;;;;;;;;;;;;;;;16.67;nan;101886.94;5058621;28;19967;-85
2023/10/09 08:39:39;;;;;;;;;;;;;;;16.70;nan;101889.94;5059796;28;19979;-86
2023/10/09 08:42:07;;;;;;;;;;;;;;;16.72;nan;101895.09;5059891;28;19970;-86
2023/10/09 08:44:34;;;;;;;;;;;;;;;16.79;nan;101895.69;5057774;28;19920;-89
2023/10/09 08:47:00;;;;;;;;;;;;;;;16.80;nan;101908.13;5061446;28;19936;-86
2023/10/09 08:49:26;;;;;;;;;;;;;;;16.74;nan;101903.78;5058619;28;19924;-87
2023/10/09 08:51:52;;;;;;;;;;;;;;;16.78;nan;101902.97;5061247;28;19952;-86
2023/10/09 08:54:18;;;;;;;;;;;;;;;16.86;nan;101901.66;5061024;28;19920;-89
2023/10/09 08:56:51;;;;;;;;;;;;;;;16.89;nan;101906.56;5060388;28;19916;-87
2023/10/09 08:59:20;;;;;;;;;;;;;;;16.91;nan;101901.72;5061735;28;19966;-88
2023/10/09 09:01:49;;;;;;;;;;;;;;;16.98;nan;101896.06;5059606;28;19959;-88
2023/10/09 09:04:33;;;;;;;;;;;;;;;17.04;nan;101895.81;5058211;28;19920;-86
2023/10/09 09:06:59;;;;;;;;;;;;;;;17.12;nan;101894.50;5073246;28;19924;-88
2023/10/09 09:09:28;;;;;;;;;;;;;;;17.17;nan;101889.91;5058598;28;19947;-92
2023/10/09 09:11:55;;;;;;;;;;;;;;;17.24;nan;101899.72;5062149;28;20562;-89
2023/10/09 09:14:36;;;;;;;;;;;;;;;17.25;nan;101895.94;5062829;28;19931;-90
2023/10/09 09:17:04;;;;;;;;;;;;;;;17.31;nan;101894.84;5060912;28;19925;-90
2023/10/09 09:19:32;;;;;;;;;;;;;;;17.36;nan;101898.38;5067839;28;20358;-95
2023/10/09 09:22:11;;;;;;;;;;;;;;;17.30;nan;101895.94;5061104;28;19921;-92
2023/10/09 09:24:36;;;;;;;;;;;;;;;17.34;nan;101902.44;5063364;28;19924;-95
2023/10/09 09:27:31;;;;;;;;;;;;;;;17.43;nan;101901.69;5067032;28;20240;-93
2023/10/09 09:29:54;;;;;;;;;;;;;;;17.50;nan;101906.84;5066099;28;19931;-95
2023/10/09 09:32:29;;;;;;;;;;;;;;;17.52;nan;101910.91;5067128;28;20447;-91
2023/10/09 09:35:00;;;;;;;;;;;;;;;17.61;nan;101902.28;5062164;28;19963;-94
2023/10/09 09:38:04;;;;;;;;;;;;;;;17.72;nan;101901.22;5060060;28;19925;-91
2023/10/09 09:40:30;;;;;;;;;;;;;;;17.86;nan;101894.22;5060679;28;19981;-92
2023/10/09 09:43:05;;;;;;;;;;;;;;;17.97;nan;101881.50;5056898;28;20500;-93
2023/10/09 09:45:37;;;;;;;;;;;;;;;17.97;nan;101889.63;5058423;28;19924;-91
2023/10/09 09:48:06;;;;;;;;;;;;;;;17.99;nan;101882.03;5060659;28;19917;-92
2023/10/09 09:50:32;;;;;;;;;;;;;;;17.98;nan;101881.22;5057810;28;20005;-92
2023/10/09 09:52:58;;;;;;;;;;;;;;;18.00;nan;101878.25;5061343;28;20011;-92
2023/10/09 09:55:33;;;;;;;;;;;;;;;18.01;nan;101885.28;5062695;28;19947;-91
2023/10/09 09:57:58;;;;;;;;;;;;;;;18.09;nan;101873.91;5061064;28;19979;-91
2023/10/09 10:00:42;;;;;;;;;;;;;;;18.20;nan;101866.59;5058251;28;20385;-93
2023/10/09 10:03:22;;;;;;;;;;;;;;;18.37;nan;101864.41;5059357;28;19920;-90
2023/10/09 10:05:49;;;;;;;;;;;;;;;18.50;nan;101854.91;5058948;28;19925;-90
2023/10/09 10:08:19;;;;;;;;;;;;;;;18.59;nan;101853.22;5058444;28;19928;-92
2023/10/09 10:10:52;;;;;;;;;;;;;;;18.64;nan;101845.91;5062774;28;20175;-94
2023/10/09 10:13:27;;;;;;;;;;;;;;;18.68;nan;101846.19;5064592;28;19920;-91
2023/10/09 10:16:00;;;;;;;;;;;;;;;18.74;nan;101850.53;5057187;28;19924;-91
2023/10/09 10:18:29;;;;;;;;;;;;;;;18.86;nan;101850.22;5058365;28;19921;-92
2023/10/09 10:24:10;;;;;;;;;;;;;;;19.00;nan;101849.31;5060150;28;19931;-92
2023/10/09 10:26:36;;;;;;;;;;;;;;;19.00;nan;101857.47;5062672;28;19924;-93
2023/10/09 10:29:23;;;;;;;;;;;;;;;19.09;nan;101856.91;5058512;28;19920;-92
2023/10/09 10:32:08;;;;;;;;;;;;;;;19.04;nan;101846.91;5062694;28;19943;-92
2023/10/09 10:34:45;;;;;;;;;;;;;;;19.04;nan;101843.38;5058921;28;19928;-92
2023/10/09 10:37:13;;;;;;;;;;;;;;;19.10;nan;101853.09;5060291;28;19920;-90
2023/10/09 10:39:49;;;;;;;;;;;;;;;19.11;nan;101849.31;5059047;28;19916;-93
2023/10/09 10:42:36;;;;;;;;;;;;;;;19.18;nan;101841.66;5056292;28;19924;-95
2023/10/09 10:45:02;;;;;;;;;;;;;;;19.23;nan;101842.47;5066326;28;19947;-94
2023/10/09 10:47:34;;;;;;;;;;;;;;;19.21;nan;101833.78;5062952;28;19927;-92
2023/10/09 10:50:11;;;;;;;;;;;;;;;19.22;nan;101831.88;5067016;28;19927;-94
2023/10/09 10:52:41;;;;;;;;;;;;;;;19.22;nan;101823.72;5061606;28;19924;-93
2023/10/09 10:58:00;;;;;;;;;;;;;;;19.45;nan;101806.72;5063657;28;20326;-90
2023/10/09 11:03:23;;;;;;;;;;;;;;;19.73;nan;101786.16;5064185;28;20016;-93
2023/10/09 11:05:52;;;;;;;;;;;;;;;19.96;nan;101792.78;5066510;28;19975;-95
2023/10/09 11:08:22;;;;;;;;;;;;;;;20.08;nan;101793.19;5059745;28;19925;-95
2023/10/09 11:10:53;;;;;;;;;;;;;;;20.22;nan;101785.19;5064553;28;19967;-93
2023/10/09 11:13:36;;;;;;;;;;;;;;;20.04;nan;101803.03;5075938;28;19923;-95
2023/10/09 11:16:28;;;;;;;;;;;;;;;19.83;nan;101801.59;5062489;28;20303;-92
2023/10/09 11:18:56;;;;;;;;;;;;;;;19.88;nan;101793.38;5063215;28;19924;-90
2023/10/09 11:26:40;;;;;;;;;;;;;;;20.40;nan;101799.97;5057784;28;19928;-92
2023/10/09 11:32:06;;;;;;;;;;;;;;;20.30;nan;101797.38;5071273;28;19931;-95
2023/10/09 11:34:32;;;;;;;;;;;;;;;20.46;nan;101798.81;5073067;28;21232;-96
2023/10/09 11:36:58;;;;;;;;;;;;;;;20.61;nan;101804.09;5076344;28;19916;-94
2023/10/09 11:39:31;;;;;;;;;;;;;;;20.55;nan;101799.81;5060770;28;19920;-93
2023/10/09 11:42:04;;;;;;;;;;;;;;;20.59;nan;101805.50;5060700;28;19925;-94
2023/10/09 11:44:39;;;;;;;;;;;;;;;20.66;nan;101797.81;5062269;28;19920;-91
2023/10/09 11:54:57;;;;;;;;;;;;;;;20.55;nan;101804.47;5060020;28;19967;-92
2023/10/09 11:57:30;;;;;;;;;;;;;;;20.50;nan;101783.56;5060991;28;19920;-91
2023/10/09 11:59:56;;;;;;;;;;;;;;;20.33;nan;101796.78;5069559;28;20374;-93
2023/10/09 12:02:21;;;;;;;;;;;;;;;20.26;nan;101788.13;5061680;28;19924;-92
2023/10/09 12:04:46;;;;;;;;;;;;;;;20.10;nan;101798.34;5063451;28;19917;-92
2023/10/09 12:07:12;;;;;;;;;;;;;;;19.99;nan;101803.09;5066635;28;20596;-92
2023/10/09 12:09:37;;;;;;;;;;;;;;;19.97;nan;101796.31;5061822;28;19924;-92
2023/10/09 12:12:04;;;;;;;;;;;;;;;19.97;nan;101791.69;5060308;28;20299;-93
2023/10/09 12:14:33;;;;;;;;;;;;;;;20.09;nan;101797.53;5062273;28;19924;-93
2023/10/09 12:17:05;;;;;;;;;;;;;;;20.09;nan;101794.81;5064295;28;19954;-92
2023/10/09 12:19:38;;;;;;;;;;;;;;;20.15;nan;101801.03;5058902;28;20003;-95
2023/10/09 12:22:05;;;;;;;;;;;;;;;20.18;nan;101811.34;5061651;28;20342;-91
2023/10/09 12:24:31;;;;;;;;;;;;;;;20.25;nan;101806.38;5058481;28;19931;-92
2023/10/09 12:26:57;;;;;;;;;;;;;;;20.35;nan;101803.56;5059964;28;20346;-93
2023/10/09 12:29:23;;;;;;;;;;;;;;;20.43;nan;101802.13;5062139;28;20003;-92
2023/10/09 12:31:57;;;;;;;;;;;;;;;20.49;nan;101795.56;5060350;28;19944;-93
2023/10/09 12:34:26;;;;;;;;;;;;;;;20.51;nan;101790.63;5058914;28;19956;-91
2023/10/09 12:36:52;;;;;;;;;;;;;;;20.48;nan;101791.22;5060823;28;20007;-92
2023/10/09 12:39:18;;;;;;;;;;;;;;;20.46;nan;101793.38;5056239;28;20407;-91
2023/10/09 12:41:46;;;;;;;;;;;;;;;20.38;nan;101791.28;5053964;28;19927;-92
2023/10/09 12:44:14;;;;;;;;;;;;;;;20.39;nan;101784.72;5053685;28;20304;-93
2023/10/09 12:46:51;;;;;;;;;;;;;;;20.46;nan;101790.66;5055471;28;19936;-93
2023/10/09 12:49:17;;;;;;;;;;;;;;;20.49;nan;101781.94;5060209;28;19920;-93
2023/10/09 12:51:43;;;;;;;;;;;;;;;20.45;nan;101783.59;5051169;28;19917;-91
2023/10/09 12:54:08;;;;;;;;;;;;;;;20.42;nan;101785.00;5057917;28;19927;-92
2023/10/09 12:56:37;;;;;;;;;;;;;;;20.36;nan;101767.06;5056540;28;19920;-93
2023/10/09 12:59:04;;;;;;;;;;;;;;;20.28;nan;101777.75;5056121;28;20493;-90
2023/10/09 13:01:31;;;;;;;;;;;;;;;20.15;nan;101763.75;5058941;28;20069;-92
2023/10/09 13:04:00;;;;;;;;;;;;;;;20.13;nan;101755.06;5059476;28;20856;-91
2023/10/09 13:06:26;;;;;;;;;;;;;;;20.14;nan;101753.16;5060490;28;20319;-92
2023/10/09 13:08:51;;;;;;;;;;;;;;;20.16;nan;101743.59;5059741;28;19924;-91
2023/10/09 13:11:17;;;;;;;;;;;;;;;20.20;nan;101736.47;5058247;28;19920;-92
2023/10/09 13:13:43;;;;;;;;;;;;;;;20.27;nan;101747.00;5063045;28;19921;-94
2023/10/09 13:16:11;;;;;;;;;;;;;;;20.33;nan;101754.03;5061127;28;19920;-92
2023/10/09 13:18:38;;;;;;;;;;;;;;;20.30;nan;101745.66;5062963;28;19963;-94
2023/10/09 13:21:04;;;;;;;;;;;;;;;20.26;nan;101747.31;5063007;28;19926;-95
2023/10/09 13:23:38;;;;;;;;;;;;;;;20.30;nan;101740.22;5058715;28;19925;-93
2023/10/09 13:26:08;;;;;;;;;;;;;;;20.37;nan;101751.56;5062244;28;19931;-92
2023/10/09 13:28:37;;;;;;;;;;;;;;;20.41;nan;101760.78;5060062;28;19924;-93
2023/10/09 13:31:04;;;;;;;;;;;;;;;20.47;nan;101762.38;5061251;28;19924;-95
2023/10/09 13:33:36;;;;;;;;;;;;;;;20.43;nan;101764.03;5060389;28;19916;-93
2023/10/09 13:36:02;;;;;;;;;;;;;;;20.45;nan;101767.25;5060102;28;19931;-94
2023/10/09 13:38:27;;;;;;;;;;;;;;;20.55;nan;101767.16;5061895;28;20007;-92
2023/10/09 13:41:01;;;;;;;;;;;;;;;20.60;nan;101758.13;5062548;28;20281;-93
2023/10/09 13:43:28;;;;;;;;;;;;;;;20.64;nan;101751.78;5057041;28;19920;-94
2023/10/09 13:45:53;;;;;;;;;;;;;;;20.63;nan;101750.16;5066713;28;20102;-93
2023/10/09 13:48:20;;;;;;;;;;;;;;;20.55;nan;101755.47;5056984;28;19923;-93
2023/10/09 13:50:47;;;;;;;;;;;;;;;20.44;nan;101749.31;5061571;28;19948;-94
2023/10/09 13:53:14;;;;;;;;;;;;;;;20.42;nan;101751.50;5053990;28;19924;-95
2023/10/09 13:55:43;;;;;;;;;;;;;;;20.42;nan;101751.50;5058736;28;19925;-96
2023/10/09 13:58:13;;;;;;;;;;;;;;;20.49;nan;101744.63;5059517;28;19974;-94
2023/10/09 14:00:42;;;;;;;;;;;;;;;20.49;nan;101743.84;5058666;28;19920;-93
2023/10/09 14:03:19;;;;;;;;;;;;;;;20.50;nan;101742.72;5060893;28;19943;-94
2023/10/09 14:05:56;;;;;;;;;;;;;;;20.51;nan;101742.44;5059668;28;20139;-93
2023/10/09 14:08:22;;;;;;;;;;;;;;;20.52;nan;101741.34;5060011;28;19968;-95
2023/10/09 14:10:48;;;;;;;;;;;;;;;20.56;nan;101743.47;5062636;28;19959;-96
2023/10/09 14:13:17;;;;;;;;;;;;;;;20.60;nan;101734.41;5053843;28;19973;-95
2023/10/09 14:15:45;;;;;;;;;;;;;;;20.60;nan;101731.69;5059127;28;19916;-96
2023/10/09 14:18:11;;;;;;;;;;;;;;;20.57;nan;101735.00;5062387;28;19920;-94
2023/10/09 14:20:41;;;;;;;;;;;;;;;20.53;nan;101736.69;5071063;28;19951;-95
2023/10/09 14:23:06;;;;;;;;;;;;;;;20.51;nan;101739.72;5060511;28;19920;-93
2023/10/09 14:25:39;;;;;;;;;;;;;;;20.55;nan;101739.94;5060934;28;20023;-94
2023/10/09 14:28:07;;;;;;;;;;;;;;;20.55;nan;101748.09;5062760;28;19920;-94
2023/10/09 14:30:41;;;;;;;;;;;;;;;20.56;nan;101735.31;5066431;28;19921;-94
2023/10/09 14:33:12;;;;;;;;;;;;;;;20.54;nan;101753.84;5064400;28;19920;-95
2023/10/09 14:35:39;;;;;;;;;;;;;;;20.52;nan;101749.50;5060800;28;20015;-94
2023/10/09 14:38:11;;;;;;;;;;;;;;;20.48;nan;101750.38;5060957;28;19928;-92
2023/10/09 14:40:41;;;;;;;;;;;;;;;20.42;nan;101743.34;5061952;28;19920;-94
2023/10/09 14:43:08;;;;;;;;;;;;;;;20.37;nan;101744.19;5063287;28;20058;-95
2023/10/09 14:45:36;;;;;;;;;;;;;;;20.34;nan;101754.84;5067946;28;20019;-94
2023/10/09 14:48:02;;;;;;;;;;;;;;;20.32;nan;101744.25;5063501;28;19916;-94
2023/10/09 14:50:27;;;;;;;;;;;;;;;20.30;nan;101751.91;5062063;28;20155;-94
2023/10/09 14:52:52;;;;;;;;;;;;;;;20.31;nan;101761.69;5065247;28;19916;-96
2023/10/09 14:55:20;;;;;;;;;;;;;;;20.35;nan;101756.47;5064204;28;20293;-93
2023/10/09 14:57:52;;;;;;;;;;;;;;;20.35;nan;101762.72;5068144;28;19921;-94
2023/10/09 15:00:22;;;;;;;;;;;;;;;20.33;nan;101758.69;5070630;28;19921;-96
2023/10/09 15:02:48;;;;;;;;;;;;;;;20.32;nan;101768.75;5066548;28;19975;-94
2023/10/09 15:05:13;;;;;;;;;;;;;;;20.29;nan;101776.66;5066632;28;19924;-94
2023/10/09 15:07:40;;;;;;;;;;;;;;;20.31;nan;101775.31;5065539;28;20019;-95